Mount Gilead, OH (43338)

3:45 AM EDT on May 06, 2015 (GMT -0400)
Shauck - OH 314 at US 42 | | Change Station
CLOSE
Current Station
Personal Weather Station
Location: Mount Gilead, OH
Elevation: 1365 ft
Nearby Weather Stations

Elev 1365 ft 40.62 °N, 82.66 °W | Updated 4 seconds ago

Partly Cloudy
Partly Cloudy
57.2 °F
Feels Like 57.2 °F
N
1.3
Wind Variable Wind from ESE
Gusts 2.5 mph

Today
High -- | Low -- °F
--% Chance of Precip.
Yesterday
High -- | Low -- °F
Precip. -- in
6:24 AM 8:31 PM
Waning Gibbous, 95% visible
Pressure 30.21 in
Visibility 2.5 miles
Clouds Overcast 200 ft
Dew Point 57 °F
Humidity 99%
Rainfall 0.00 in
Snow Depth Not available.
UV 0 out of 12
Pollen 4.50 out of 12
Air Quality Not available.
Flu Activity Regional
SPECI KMNN 060736Z AUTO 34003KT 2 1/2SM BR OVC002 15/13 A3021 RMK AO2 T01500133 TSNO

More Conditions Fewer Conditions

Pressure 30.21 in
Visibility 2.5 miles
Clouds Overcast 200 ft
Dew Point 57 °F
Humidity 99%
Rainfall 0.00 in
Snow Depth Not available.
UV 0 out of 12
Pollen 4.50 out of 12
Air Quality Not available.
Flu Activity Regional
SPECI KMNN 060736Z AUTO 34003KT 2 1/2SM BR OVC002 15/13 A3021 RMK AO2 T01500133 TSNO

More Conditions Fewer Conditions

10-Day Weather Forecast

Almanac

Astronomy

May. 06, 2015 Rise Set
Actual Time
Civil Twilight
Nautical Twilight
Astronomical Twilight
Moon
Length of Visible Light
Length of Day
Tomorrow will be .
, % of the Moon is Illuminated

Today's Extremes

State Highs State Lows

Community

WunderPhotos

Upload Photos

1,818,856 photos uploaded!

WunderBlogs® & News

Nearby

Air Quality

  Air Quality AQ Index Pollutant
Not available.

Snow Depth

Station Depth Elevation

Earthquake Activity

City Distance Mag. Time & Date
Minimum magnitude displayed is 2.5.

Coastal Water Temperatures

Place Temperature

Stations

Nearby Weather Stations

Station Location Temp. Windchill Dew Point Humidity Wind Precip. Elev Updated Type